Terminal Aerodrome Forecast
Issued by NWS

Home | Current Version | Previous Version | Text Only | Print | Product List | Glossary On
Versions: 1 2 3 4 5 6 7 8 9 10 11 12 13 14 15 16 17 18 19 20 21 22 23 24
000
FTUS45 KGJT 181131
TAFEGE
TAF
KEGE 181131Z 1812/1912 VRB03KT P6SM SKC
     FM181900 24009KT P6SM FEW100
     FM190200 14005KT P6SM FEW150
      AMD LTD TO CLD VIS AND WIND TIL 181300=

USA.gov is the U.S. government's official web portal to all federal, state and local government web resources and services.